Aérodrome :
LOGIN :

S'inscrire | Disclaimer

   EN    FR    IT 

 










Légende :    VFR   VFR Marginal   IFR   IFR Intensif   IFR Très Intensif
Visi : 
Plafond : 
>= 8 km
>= 3000ft
5 à 8 km
1000 à 3000 ft
1500m à 5 km
500 à 1000 ft
800 à 1500m
200 à 500 ft
< 800m
< 200 ft
Symboles :   Orages  Brouillard  Fortes neiges  Fortes précipitations  Vent > 20 kt
SIGMETs :   Divers  Orages  Givrage  Turbulence  Onde Orograph.  Cendres Volcan.






- Altitude de l'aérodrome : 290 ft
- Code IATA : ACI


EGJA - Alderney

DERNIER METAR :
  • 210850Z 15013KT 9999 -RA FEW009 SCT025 07/05 Q1000

METARs EXPIRÉS :
  • 210820Z 14013KT 9999 FEW011 SCT030 07/05 Q1000
  • 210750Z 14012KT 9999 FEW012 SCT025 07/04 Q1000
  • 210720Z 14013KT 9999 FEW011 SCT024 07/05 Q1000
  • 210650Z 15012KT 9999 FEW011 BKN022 07/04 Q1000

TAF TAF EGJA
Valide du 21 à 09h jusqu'au 21 à 18h UTC


210803Z 2109/2118 15018KT 9000 -RADZ FEW004 BKN008
TEMPO 2109/2115 4000 RA BKN004
BECMG 2114/2116 9999 NSW SCT015
PROB40
TEMPO 2115/2118 7000 SHRA BKN012CB



MET'MAP, la Météo Aéronautique d'un coup d'oeil ! - Copyright ORBIFLY Décembre 2007 - Disclaimer

ORBIFLY MET'MAP TEAM :

Programmation & Développement : Alexandra Zaïnal
Conception & Développement : Baudouin d'Aumeries
Co-Programmation & Développement : Marc-Olivier Méhu
Soutien technique & logistique : Manuel Goepfert

Contact : metmap@orbifly.com




SOURCES & CREDITS :

   NOAA